Charles, North Carolina
Current Conditions -  °F | °C
As of 7:55 PM on Wednesday 17 Dec 2014 (Local Time) from KSVH Reporting Station
Clear Clear  
Wind Chill: 49°   Ceiling: Unl
Heat Index: 49°   Visibility: 10mi
Dew Point: 25°   Wind: 3mph
Humidity: 40%   Direction: 330°NNW
Pressure: 30.08"   Gusts: NA
Location:  35.8306°N, 80.9003°W
Report Text: KSVH 180055Z AUTO 33003KT 10SM CLR 10/M04 A3008 RMK AO2 T00951037
Loading
Personal Weather Stations






























Interactive Weather Map New forecast layout! Learn more

10-Day Weather Forecast

Advertisements
Track Severe Weather on mobile